Time;durP1;ratioP1;P1;durP2;ratioP2;P2;SDS_P1;SDS_P2;PMS_P1;PMS_P2;Temp;Humidity;BMP_temperature;BMP_pressure;BME280_temperature;BME280_humidity;BME280_pressure;Samples;Min_cycle;Max_cycle;Signal;HPM_P1;HPM_P2
2023/11/03 00:00:07;;;;;;;5.40;1.40;;;;;;;;;;103295;1297;546447;-76
2023/11/03 00:03:22;;;;;;;5.10;1.00;;;;;;;;;;104120;1288;545595;-76
2023/11/03 00:07:00;;;;;;;5.50;1.10;;;;;;;;;;104011;1292;544845;-77
2023/11/03 00:10:37;;;;;;;4.00;1.40;;;;;;;;;;104463;1285;544969;-77
2023/11/03 00:14:16;;;;;;;5.30;1.50;;;;;;;;;;105230;1291;544831;-77
2023/11/03 00:17:52;;;;;;;4.00;1.10;;;;;;;;;;103811;1293;544980;-77
2023/11/03 00:21:34;;;;;;;3.90;0.90;;;;;;;;;;103877;1289;545504;-78
2023/11/03 00:25:12;;;;;;;3.40;1.10;;;;;;;;;;103763;1291;546359;-75
2023/11/03 00:28:44;;;;;;;2.90;1.00;;;;;;;;;;103798;1289;544974;-77
2023/11/03 00:32:22;;;;;;;4.00;1.10;;;;;;;;;;104169;1287;545067;-75
2023/11/03 00:35:57;;;;;;;5.00;1.20;;;;;;;;;;104030;1288;546017;-77
2023/11/03 00:39:41;;;;;;;4.80;0.90;;;;;;;;;;103663;1292;548218;-78
2023/11/03 00:43:14;;;;;;;3.10;0.90;;;;;;;;;;104043;1288;545754;-75
2023/11/03 00:46:52;;;;;;;5.30;1.20;;;;;;;;;;103816;1294;544804;-76
2023/11/03 00:50:30;;;;;;;4.30;1.30;;;;;;;;;;104589;1283;544868;-76
2023/11/03 00:54:07;;;;;;;5.20;1.50;;;;;;;;;;103857;1296;544947;-74
2023/11/03 00:57:44;;;;;;;4.30;1.20;;;;;;;;;;103995;1301;545034;-75
2023/11/03 01:01:22;;;;;;;4.40;1.20;;;;;;;;;;104261;1283;545512;-76
2023/11/03 01:04:59;;;;;;;5.70;1.30;;;;;;;;;;103876;1288;545066;-75
2023/11/03 01:08:44;;;;;;;4.60;1.10;;;;;;;;;;103660;1299;545936;-77
2023/11/03 01:12:15;;;;;;;3.90;1.10;;;;;;;;;;103941;1289;544888;-77
2023/11/03 01:15:59;;;;;;;3.80;1.10;;;;;;;;;;103611;1291;548090;-77
2023/11/03 01:19:25;;;;;;;4.50;1.10;;;;;;;;;;103754;1295;544717;-79
2023/11/03 01:23:07;;;;;;;3.90;1.00;;;;;;;;;;103980;1288;545914;-78
2023/11/03 01:26:44;;;;;;;2.90;1.00;;;;;;;;;;103835;1289;545509;-80
2023/11/03 01:30:21;;;;;;;2.60;0.90;;;;;;;;;;103776;1291;545038;-76
2023/11/03 01:34:00;;;;;;;4.30;1.00;;;;;;;;;;103819;1294;545851;-76
2023/11/03 01:37:45;;;;;;;4.70;0.90;;;;;;;;;;103647;1292;546301;-80
2023/11/03 01:41:18;;;;;;;3.70;1.00;;;;;;;;;;103711;1289;546426;-76
2023/11/03 01:44:51;;;;;;;2.50;1.00;;;;;;;;;;103837;1289;545668;-79
2023/11/03 01:48:31;;;;;;;2.90;0.90;;;;;;;;;;103879;1289;545497;-78
2023/11/03 01:52:11;;;;;;;2.50;0.90;;;;;;;;;;104039;1291;548457;-78
2023/11/03 01:55:47;;;;;;;3.60;1.10;;;;;;;;;;103673;1291;545926;-78
2023/11/03 01:59:22;;;;;;;2.50;1.00;;;;;;;;;;103767;1294;544932;-76
2023/11/03 02:03:06;;;;;;;2.20;0.90;;;;;;;;;;103582;1290;549268;-78
2023/11/03 02:06:36;;;;;;;3.50;1.10;;;;;;;;;;103802;1289;545336;-78
2023/11/03 02:10:21;;;;;;;2.80;1.00;;;;;;;;;;104076;1288;548136;-77
2023/11/03 02:13:51;;;;;;;3.80;1.10;;;;;;;;;;104001;1289;544808;-76
2023/11/03 02:17:34;;;;;;;3.60;1.10;;;;;;;;;;103640;1292;548434;-77
2023/11/03 02:21:13;;;;;;;4.10;1.10;;;;;;;;;;103784;1289;548423;-77
2023/11/03 02:24:43;;;;;;;3.50;1.10;;;;;;;;;;103828;1294;545156;-77
2023/11/03 02:28:21;;;;;;;3.10;1.10;;;;;;;;;;103731;1291;544796;-76
2023/11/03 02:32:03;;;;;;;3.00;1.10;;;;;;;;;;103755;1294;546497;-77
2023/11/03 02:35:36;;;;;;;2.70;1.00;;;;;;;;;;103853;1291;545041;-78
2023/11/03 02:39:28;;;;;;;1.50;0.50;;;;;;;;;;104339;1295;547872;-83
2023/11/03 02:42:54;;;;;;;2.30;0.70;;;;;;;;;;103694;1295;546944;-79
2023/11/03 02:46:34;;;;;;;1.70;0.60;;;;;;;;;;103879;1289;545223;-79
2023/11/03 02:50:15;;;;;;;2.20;0.50;;;;;;;;;;104139;1288;545541;-80
2023/11/03 02:53:51;;;;;;;1.80;0.60;;;;;;;;;;103510;1295;547969;-78
2023/11/03 02:57:29;;;;;;;2.30;0.60;;;;;;;;;;103503;1297;547936;-79
2023/11/03 03:01:08;;;;;;;1.80;0.50;;;;;;;;;;103871;1297;549052;-83
2023/11/03 03:04:45;;;;;;;1.70;0.40;;;;;;;;;;103639;1293;545245;-84
2023/11/03 03:08:23;;;;;;;1.60;0.40;;;;;;;;;;103786;1292;547989;-78
2023/11/03 03:11:56;;;;;;;1.50;0.60;;;;;;;;;;103752;1292;548296;-79
2023/11/03 03:15:36;;;;;;;2.30;0.50;;;;;;;;;;103642;1291;548120;-82
2023/11/03 03:19:06;;;;;;;0.90;0.50;;;;;;;;;;103815;1291;546060;-79
2023/11/03 03:22:52;;;;;;;1.60;0.70;;;;;;;;;;103769;1292;545431;-80
2023/11/03 03:26:26;;;;;;;2.90;0.60;;;;;;;;;;103673;1291;547995;-79
2023/11/03 03:30:02;;;;;;;1.40;0.50;;;;;;;;;;103665;1291;546001;-79
2023/11/03 03:33:35;;;;;;;1.40;0.60;;;;;;;;;;103754;1295;545039;-78
2023/11/03 03:37:13;;;;;;;3.30;0.70;;;;;;;;;;104032;1290;545077;-78
2023/11/03 03:40:54;;;;;;;2.60;0.60;;;;;;;;;;103639;1292;545319;-79
2023/11/03 03:44:28;;;;;;;1.10;0.50;;;;;;;;;;104131;1289;545440;-78
2023/11/03 03:48:15;;;;;;;1.60;0.70;;;;;;;;;;103670;1290;547947;-78
2023/11/03 03:51:43;;;;;;;2.00;0.50;;;;;;;;;;103942;1289;544831;-79
2023/11/03 03:55:29;;;;;;;3.00;0.80;;;;;;;;;;104237;1283;547895;-82
2023/11/03 03:59:07;;;;;;;3.30;0.80;;;;;;;;;;103778;1295;549003;-79
2023/11/03 04:02:49;;;;;;;2.40;0.80;;;;;;;;;;103495;1297;549201;-78
2023/11/03 04:06:29;;;;;;;1.90;0.60;;;;;;;;;;103687;1292;547979;-83
2023/11/03 04:09:51;;;;;;;1.90;0.50;;;;;;;;;;103808;1289;545333;-79
2023/11/03 04:13:36;;;;;;;3.40;0.80;;;;;;;;;;103962;1291;549708;-82
2023/11/03 04:17:22;;;;;;;2.10;0.60;;;;;;;;;;103461;1294;548227;-79
2023/11/03 04:21:07;;;;;;;1.50;0.70;;;;;;;;;;103625;1298;545248;-81
2023/11/03 04:24:25;;;;;;;1.90;0.80;;;;;;;;;;103697;1291;548028;-79
2023/11/03 04:28:05;;;;;;;2.20;0.70;;;;;;;;;;103609;1293;547828;-79
2023/11/03 04:31:45;;;;;;;1.90;0.80;;;;;;;;;;103706;1295;548028;-82
2023/11/03 04:35:24;;;;;;;3.80;0.80;;;;;;;;;;103596;1294;547989;-79
2023/11/03 04:39:19;;;;;;;3.50;1.00;;;;;;;;;;103708;1295;549350;-80
2023/11/03 04:46:22;;;;;;;3.30;1.00;;;;;;;;;;103876;1288;548378;-79
2023/11/03 04:49:48;;;;;;;3.30;1.00;;;;;;;;;;103674;1295;547478;-78
2023/11/03 04:53:25;;;;;;;3.80;1.50;;;;;;;;;;103792;1288;547976;-79
2023/11/03 04:57:10;;;;;;;6.10;2.60;;;;;;;;;;103648;1295;548051;-82
2023/11/03 05:00:41;;;;;;;6.60;2.90;;;;;;;;;;103585;1291;545869;-79
2023/11/03 05:04:22;;;;;;;6.40;3.50;;;;;;;;;;103636;1297;548152;-80
2023/11/03 05:08:01;;;;;;;5.50;2.90;;;;;;;;;;103809;1292;547816;-81
2023/11/03 05:11:46;;;;;;;7.10;3.30;;;;;;;;;;103693;1290;548080;-80
2023/11/03 05:15:11;;;;;;;10.00;3.60;;;;;;;;;;103789;1289;548099;-78
2023/11/03 05:18:46;;;;;;;8.20;2.70;;;;;;;;;;104073;1292;547967;-79
2023/11/03 05:22:43;;;;;;;6.80;3.40;;;;;;;;;;103783;1288;545501;-80
2023/11/03 05:26:03;;;;;;;6.60;2.80;;;;;;;;;;104391;1282;549326;-79
2023/11/03 05:29:42;;;;;;;6.70;2.20;;;;;;;;;;103673;1292;549075;-79
2023/11/03 05:33:25;;;;;;;4.20;1.80;;;;;;;;;;103585;1294;547969;-82
2023/11/03 05:36:58;;;;;;;6.80;2.20;;;;;;;;;;103684;1291;547792;-78
2023/11/03 05:40:34;;;;;;;5.10;2.20;;;;;;;;;;103683;1295;548097;-79
2023/11/03 05:44:26;;;;;;;5.00;1.80;;;;;;;;;;103816;1292;544755;-80
2023/11/03 05:47:47;;;;;;;4.30;1.90;;;;;;;;;;103414;1298;548230;-78
2023/11/03 05:51:21;;;;;;;5.00;1.60;;;;;;;;;;103814;1290;545412;-78
2023/11/03 05:55:13;;;;;;;4.10;1.70;;;;;;;;;;103654;1305;545463;-80
2023/11/03 05:58:43;;;;;;;4.20;1.90;;;;;;;;;;103923;1303;545213;-81
2023/11/03 06:02:15;;;;;;;7.10;3.70;;;;;;;;;;103789;1289;545997;-78
2023/11/03 06:05:57;;;;;;;8.20;4.00;;;;;;;;;;103935;1292;547805;-79
2023/11/03 06:09:33;;;;;;;8.60;4.20;;;;;;;;;;103744;1288;548564;-79
2023/11/03 06:13:12;;;;;;;6.30;3.00;;;;;;;;;;104044;1288;547790;-79
2023/11/03 06:16:43;;;;;;;6.60;2.50;;;;;;;;;;103880;1292;545419;-78
2023/11/03 06:20:22;;;;;;;4.70;2.10;;;;;;;;;;103699;1289;545232;-78
2023/11/03 06:24:05;;;;;;;5.40;2.40;;;;;;;;;;103623;1291;545392;-80
2023/11/03 06:27:41;;;;;;;6.00;2.20;;;;;;;;;;103507;1297;549325;-78
2023/11/03 06:31:26;;;;;;;5.30;2.40;;;;;;;;;;103911;1294;545481;-81
2023/11/03 06:35:04;;;;;;;5.60;2.70;;;;;;;;;;103601;1297;547955;-79
2023/11/03 06:38:59;;;;;;;7.00;3.40;;;;;;;;;;103694;1295;548206;-78
2023/11/03 06:42:05;;;;;;;7.80;3.80;;;;;;;;;;103781;1292;544890;-78
2023/11/03 06:45:43;;;;;;;8.60;4.70;;;;;;;;;;103899;1289;547937;-78
2023/11/03 06:49:18;;;;;;;9.60;4.50;;;;;;;;;;103807;1292;544998;-78
2023/11/03 06:53:05;;;;;;;13.20;7.40;;;;;;;;;;103658;1296;545692;-79
2023/11/03 06:56:42;;;;;;;16.00;9.70;;;;;;;;;;103570;1292;548463;-78
2023/11/03 07:00:12;;;;;;;16.40;9.70;;;;;;;;;;103781;1289;544941;-78
2023/11/03 07:04:18;;;;;;;14.00;8.20;;;;;;;;;;103760;1295;545420;-81
2023/11/03 07:07:42;;;;;;;;;;;;;;;;;;;;;
2023/11/03 07:11:26;;;;;;;12.30;7.00;;;;;;;;;;103826;1289;544973;-77
2023/11/03 07:15:04;;;;;;;13.80;7.10;;;;;;;;;;103628;1291;549184;-79
2023/11/03 07:18:47;;;;;;;11.90;6.90;;;;;;;;;;103789;1298;545563;-79
2023/11/03 07:21:57;;;;;;;11.80;6.90;;;;;;;;;;104195;1287;545748;-78
2023/11/03 07:25:33;;;;;;;13.50;8.60;;;;;;;;;;103770;1292;545061;-77
2023/11/03 07:29:20;;;;;;;18.40;12.90;;;;;;;;;;103577;1298;549400;-78
2023/11/03 07:32:59;;;;;;;13.40;8.20;;;;;;;;;;103820;1288;545035;-78
2023/11/03 07:36:25;;;;;;;12.20;7.30;;;;;;;;;;103478;1293;545117;-78
2023/11/03 07:40:00;;;;;;;11.10;6.30;;;;;;;;;;103800;1289;545007;-79
2023/11/03 07:43:46;;;;;;;10.00;5.90;;;;;;;;;;103790;1291;544842;-78
2023/11/03 07:47:24;;;;;;;12.60;5.80;;;;;;;;;;103621;1291;548067;-77
2023/11/03 07:51:03;;;;;;;15.40;5.80;;;;;;;;;;103630;1291;548169;-78
2023/11/03 07:54:42;;;;;;;10.40;5.10;;;;;;;;;;103646;1291;548592;-78
2023/11/03 07:58:18;;;;;;;12.40;5.70;;;;;;;;;;103928;1295;548170;-78
2023/11/03 08:01:57;;;;;;;12.40;5.10;;;;;;;;;;103705;1293;546486;-78
2023/11/03 08:05:25;;;;;;;12.00;5.50;;;;;;;;;;103878;1292;544769;-78
2023/11/03 08:09:30;;;;;;;14.10;5.30;;;;;;;;;;103545;1298;547875;-80
2023/11/03 08:12:44;;;;;;;11.10;4.80;;;;;;;;;;104233;1286;544799;-79
2023/11/03 08:16:38;;;;;;;10.00;5.20;;;;;;;;;;103820;1292;545044;-77
2023/11/03 08:19:56;;;;;;;13.10;5.80;;;;;;;;;;104026;1295;545334;-78
2023/11/03 08:23:34;;;;;;;14.60;5.00;;;;;;;;;;103878;1289;545523;-77
2023/11/03 08:27:10;;;;;;;12.80;5.20;;;;;;;;;;103810;1292;545418;-78
2023/11/03 08:30:55;;;;;;;8.70;4.30;;;;;;;;;;103848;1295;547911;-78
2023/11/03 08:34:27;;;;;;;10.60;5.80;;;;;;;;;;103718;1290;545505;-78
2023/11/03 08:38:04;;;;;;;7.90;4.20;;;;;;;;;;103764;1289;544777;-78
2023/11/03 08:42:01;;;;;;;7.80;3.60;;;;;;;;;;103778;1295;545091;-78
2023/11/03 08:45:43;;;;;;;7.70;3.20;;;;;;;;;;103622;1292;547777;-78
2023/11/03 08:48:59;;;;;;;6.80;2.80;;;;;;;;;;104186;1288;545202;-78
2023/11/03 08:52:52;;;;;;;8.40;2.30;;;;;;;;;;103893;1292;547877;-77
2023/11/03 08:56:15;;;;;;;6.90;2.80;;;;;;;;;;103641;1291;546079;-78
2023/11/03 09:00:15;;;;;;;13.00;3.20;;;;;;;;;;103625;1305;545354;-77
2023/11/03 09:03:34;;;;;;;10.20;3.00;;;;;;;;;;104063;1288;545425;-77
2023/11/03 09:07:03;;;;;;;17.70;4.10;;;;;;;;;;103764;1292;544979;-77
2023/11/03 09:10:47;;;;;;;16.00;3.80;;;;;;;;;;103777;1292;546130;-78
2023/11/03 09:14:29;;;;;;;12.60;4.30;;;;;;;;;;103876;1289;544964;-78
2023/11/03 09:18:05;;;;;;;9.00;3.40;;;;;;;;;;103656;1290;547821;-81
2023/11/03 09:21:32;;;;;;;10.70;3.80;;;;;;;;;;103834;1289;544998;-78
2023/11/03 09:25:22;;;;;;;7.70;3.70;;;;;;;;;;103620;1292;545443;-78
2023/11/03 09:29:16;;;;;;;8.90;3.80;;;;;;;;;;103470;1297;545234;-78
2023/11/03 09:32:35;;;;;;;9.30;4.00;;;;;;;;;;103293;1294;547961;-78
2023/11/03 09:36:10;;;;;;;8.70;4.10;;;;;;;;;;104004;1286;547957;-77
2023/11/03 09:40:14;;;;;;;8.40;3.80;;;;;;;;;;103974;1292;546148;-78
2023/11/03 09:43:29;;;;;;;10.10;3.60;;;;;;;;;;104239;1285;544915;-79
2023/11/03 09:47:23;;;;;;;9.20;4.00;;;;;;;;;;103575;1294;545046;-78
2023/11/03 09:50:40;;;;;;;8.70;3.20;;;;;;;;;;104652;1281;546023;-79
2023/11/03 09:54:18;;;;;;;10.90;4.50;;;;;;;;;;103837;1292;545172;-77
2023/11/03 09:57:58;;;;;;;14.50;7.90;;;;;;;;;;103783;1289;545636;-78
2023/11/03 10:01:51;;;;;;;14.10;7.90;;;;;;;;;;103624;1299;547533;-79
2023/11/03 10:05:21;;;;;;;12.40;3.90;;;;;;;;;;103708;1292;549167;-81
2023/11/03 10:09:05;;;;;;;7.90;2.60;;;;;;;;;;103471;1294;545452;-79
2023/11/03 10:12:54;;;;;;;7.20;2.70;;;;;;;;;;103434;1300;548066;-78
2023/11/03 10:16:07;;;;;;;7.20;2.80;;;;;;;;;;103773;1291;545237;-77
2023/11/03 10:19:46;;;;;;;7.90;2.50;;;;;;;;;;104081;1286;545853;-78
2023/11/03 10:23:26;;;;;;;9.60;2.90;;;;;;;;;;103688;1290;545447;-81
2023/11/03 10:27:04;;;;;;;11.10;2.70;;;;;;;;;;104327;1286;544985;-78
2023/11/03 10:30:57;;;;;;;8.40;2.90;;;;;;;;;;103949;1292;545693;-78
2023/11/03 10:34:10;;;;;;;9.70;3.00;;;;;;;;;;104016;1291;545068;-79
2023/11/03 10:37:51;;;;;;;8.00;2.40;;;;;;;;;;104273;1289;545728;-79
2023/11/03 10:41:35;;;;;;;8.90;2.60;;;;;;;;;;103451;1293;547844;-79
2023/11/03 10:45:06;;;;;;;8.10;2.50;;;;;;;;;;103568;1292;550298;-79
2023/11/03 10:48:42;;;;;;;9.80;2.80;;;;;;;;;;104687;1295;545976;-79
2023/11/03 10:52:28;;;;;;;7.00;2.40;;;;;;;;;;103487;1294;548126;-78
2023/11/03 10:56:23;;;;;;;7.70;2.60;;;;;;;;;;103771;1294;545916;-80
2023/11/03 11:00:12;;;;;;;6.30;2.60;;;;;;;;;;103452;1298;548202;-79
2023/11/03 11:03:30;;;;;;;14.10;6.90;;;;;;;;;;103731;1295;549167;-81
2023/11/03 11:07:00;;;;;;;9.30;5.30;;;;;;;;;;104308;1294;544780;-78
2023/11/03 11:11:01;;;;;;;8.70;4.70;;;;;;;;;;103814;1301;544994;-79
2023/11/03 11:14:18;;;;;;;9.60;5.40;;;;;;;;;;103571;1291;548082;-78
2023/11/03 11:17:47;;;;;;;10.50;3.90;;;;;;;;;;103492;1294;545053;-79
2023/11/03 11:21:34;;;;;;;7.70;4.20;;;;;;;;;;103687;1292;547994;-78
2023/11/03 11:25:07;;;;;;;8.80;3.90;;;;;;;;;;103801;1290;546167;-79
2023/11/03 11:28:49;;;;;;;8.50;4.20;;;;;;;;;;103358;1295;546363;-79
2023/11/03 11:32:25;;;;;;;7.50;3.30;;;;;;;;;;103521;1294;545222;-77
2023/11/03 11:36:18;;;;;;;6.20;2.80;;;;;;;;;;103672;1292;547808;-78
2023/11/03 11:39:56;;;;;;;5.30;2.60;;;;;;;;;;103643;1292;547987;-78
2023/11/03 11:43:20;;;;;;;;;;;;;;;;;;;;;
2023/11/03 11:46:51;;;;;;;8.80;4.20;;;;;;;;;;103740;1291;545162;-77
2023/11/03 11:50:26;;;;;;;9.60;5.00;;;;;;;;;;103830;1291;544968;-78
2023/11/03 11:54:02;;;;;;;8.50;4.10;;;;;;;;;;103724;1291;544958;-78
2023/11/03 11:57:53;;;;;;;;;;;;;;;;;;;;;
2023/11/03 12:02:08;;;;;;;8.10;3.30;;;;;;;;;;103857;1291;544801;-79
2023/11/03 12:04:55;;;;;;;10.60;3.60;;;;;;;;;;103938;1289;546386;-80
2023/11/03 12:08:42;;;;;;;10.30;4.80;;;;;;;;;;103784;1292;545262;-79
2023/11/03 12:12:18;;;;;;;11.50;6.10;;;;;;;;;;103635;1295;548090;-79
2023/11/03 12:16:01;;;;;;;10.80;5.00;;;;;;;;;;103581;1292;549439;-78
2023/11/03 12:19:26;;;;;;;10.70;4.70;;;;;;;;;;103818;1290;545400;-79
2023/11/03 12:23:25;;;;;;;11.30;4.00;;;;;;;;;;103794;1294;546460;-79
2023/11/03 12:27:05;;;;;;;;;;;;;;;;;;;;;
2023/11/03 12:30:21;;;;;;;10.60;4.70;;;;;;;;;;103965;1295;545036;-79
2023/11/03 12:34:14;;;;;;;;;;;;;;;;;;;;;
2023/11/03 12:37:45;;;;;;;;;;;;;;;;;;;;;
2023/11/03 12:41:39;;;;;;;15.90;12.40;;;;;;;;;;103800;1295;545688;-80
2023/11/03 12:45:01;;;;;;;11.00;7.20;;;;;;;;;;103778;1292;546328;-77
2023/11/03 12:48:28;;;;;;;14.70;10.10;;;;;;;;;;103744;1292;545912;-80
2023/11/03 12:52:17;;;;;;;19.40;12.30;;;;;;;;;;103692;1298;546344;-79
2023/11/03 12:55:56;;;;;;;30.80;21.50;;;;;;;;;;104086;1289;547914;-79
2023/11/03 12:59:22;;;;;;;10.60;5.70;;;;;;;;;;104442;1282;548009;-80
2023/11/03 13:03:10;;;;;;;15.20;6.30;;;;;;;;;;103915;1288;545485;-84
2023/11/03 13:06:45;;;;;;;9.70;5.40;;;;;;;;;;103621;1295;547824;-81
2023/11/03 13:13:54;;;;;;;17.20;11.60;;;;;;;;;;103729;1291;548478;-80
2023/11/03 13:17:38;;;;;;;10.40;6.10;;;;;;;;;;104359;1289;547916;-81
2023/11/03 13:21:09;;;;;;;13.20;8.20;;;;;;;;;;103978;1288;548116;-78
2023/11/03 13:25:06;;;;;;;21.70;13.80;;;;;;;;;;103674;1301;547858;-82
2023/11/03 13:28:24;;;;;;;23.10;15.10;;;;;;;;;;103617;1292;549769;-81
2023/11/03 13:31:59;;;;;;;25.70;16.20;;;;;;;;;;103691;1292;547984;-80
2023/11/03 13:36:00;;;;;;;53.40;38.50;;;;;;;;;;103468;1295;549559;-80
2023/11/03 13:39:13;;;;;;;28.90;19.30;;;;;;;;;;104564;1282;546410;-80
2023/11/03 13:43:14;;;;;;;21.40;14.50;;;;;;;;;;104040;1295;545188;-82
2023/11/03 13:46:29;;;;;;;37.50;26.30;;;;;;;;;;103610;1293;548082;-80
2023/11/03 13:50:09;;;;;;;39.40;26.90;;;;;;;;;;103753;1292;545195;-81
2023/11/03 13:53:45;;;;;;;23.60;14.90;;;;;;;;;;104465;1283;549265;-81
2023/11/03 13:57:25;;;;;;;17.50;11.20;;;;;;;;;;103747;1295;547837;-80
2023/11/03 14:01:13;;;;;;;;;;;;;;;;;;;;;
2023/11/03 14:04:39;;;;;;;14.30;7.90;;;;;;;;;;103825;1290;547991;-79
2023/11/03 14:08:23;;;;;;;13.00;6.20;;;;;;;;;;103672;1292;547988;-83
2023/11/03 14:11:49;;;;;;;11.20;5.60;;;;;;;;;;103873;1289;545115;-80
2023/11/03 14:15:33;;;;;;;14.00;6.30;;;;;;;;;;104133;1292;544821;-83
2023/11/03 14:19:18;;;;;;;12.30;4.90;;;;;;;;;;103682;1291;549445;-78
2023/11/03 14:22:47;;;;;;;14.20;5.80;;;;;;;;;;103596;1292;547988;-81
2023/11/03 14:26:24;;;;;;;14.00;5.10;;;;;;;;;;103631;1296;547917;-79
2023/11/03 14:29:53;;;;;;;12.90;5.20;;;;;;;;;;103792;1292;544827;-79
2023/11/03 14:33:38;;;;;;;14.50;6.30;;;;;;;;;;103719;1290;549335;-78
2023/11/03 14:37:10;;;;;;;13.00;5.20;;;;;;;;;;103833;1295;546023;-79
2023/11/03 14:40:55;;;;;;;12.80;6.00;;;;;;;;;;103881;1294;545199;-78
2023/11/03 14:44:38;;;;;;;14.20;6.50;;;;;;;;;;103600;1297;548020;-81
2023/11/03 14:48:06;;;;;;;11.60;4.50;;;;;;;;;;103635;1295;549375;-79
2023/11/03 14:52:27;;;;;;;12.70;4.60;;;;;;;;;;104243;1287;546224;-80
2023/11/03 14:55:23;;;;;;;16.80;6.20;;;;;;;;;;103834;1291;546096;-83
2023/11/03 14:59:03;;;;;;;19.80;7.00;;;;;;;;;;103806;1293;547945;-81
2023/11/03 15:02:53;;;;;;;;;;;;;;;;;;;;;
2023/11/03 15:06:19;;;;;;;14.60;5.90;;;;;;;;;;103542;1291;548003;-80
2023/11/03 15:09:50;;;;;;;11.70;4.70;;;;;;;;;;103710;1292;548001;-77
2023/11/03 15:13:46;;;;;;;;;;;;;;;;;;;;;
2023/11/03 15:17:20;;;;;;;12.70;4.10;;;;;;;;;;103592;1296;547803;-83
2023/11/03 15:20:57;;;;;;;10.00;3.60;;;;;;;;;;104204;1286;547918;-86
2023/11/03 15:24:22;;;;;;;11.00;4.10;;;;;;;;;;103718;1289;547975;-83
2023/11/03 15:28:19;;;;;;;11.50;4.70;;;;;;;;;;103781;1305;545509;-81
2023/11/03 15:31:55;;;;;;;11.80;4.90;;;;;;;;;;103644;1297;547795;-85
2023/11/03 15:35:19;;;;;;;13.10;5.50;;;;;;;;;;103705;1291;547765;-79
2023/11/03 15:39:00;;;;;;;13.00;5.90;;;;;;;;;;103660;1293;549263;-80
2023/11/03 15:42:37;;;;;;;18.50;9.10;;;;;;;;;;104716;1285;549157;-80
2023/11/03 15:46:08;;;;;;;13.60;7.60;;;;;;;;;;103723;1291;547766;-80
2023/11/03 15:50:43;;;;;;;;;;;;;;;;;;;;;
2023/11/03 15:53:17;;;;;;;14.10;7.00;;;;;;;;;;103816;1290;545066;-80
2023/11/03 15:57:06;;;;;;;11.70;6.30;;;;;;;;;;103902;1295;547944;-80
2023/11/03 16:00:36;;;;;;;13.60;7.00;;;;;;;;;;103885;1289;547773;-81
2023/11/03 16:04:33;;;;;;;18.00;9.80;;;;;;;;;;103956;1288;549308;-81
2023/11/03 16:07:59;;;;;;;18.30;9.40;;;;;;;;;;104023;1292;548012;-83
2023/11/03 16:11:24;;;;;;;27.60;14.80;;;;;;;;;;103819;1292;547738;-82
2023/11/03 16:15:04;;;;;;;24.30;13.90;;;;;;;;;;103724;1288;547938;-80
2023/11/03 16:23:08;;;;;;;12.50;6.80;;;;;;;;;;103899;1292;547862;-79
2023/11/03 16:26:01;;;;;;;10.80;5.00;;;;;;;;;;103895;1292;547980;-77
2023/11/03 16:29:48;;;;;;;11.40;4.10;;;;;;;;;;103834;1295;545329;-83
2023/11/03 16:33:30;;;;;;;10.00;3.20;;;;;;;;;;103632;1292;545127;-81
2023/11/03 16:37:00;;;;;;;11.10;4.40;;;;;;;;;;104127;1286;547743;-84
2023/11/03 16:40:50;;;;;;;;;;;;;;;;;;;;;
2023/11/03 16:44:33;;;;;;;10.00;3.20;;;;;;;;;;103722;1292;549673;-80
2023/11/03 16:48:08;;;;;;;8.30;2.70;;;;;;;;;;103590;1291;548126;-85
2023/11/03 16:51:26;;;;;;;10.40;2.90;;;;;;;;;;103796;1289;544909;-81
2023/11/03 16:55:33;;;;;;;;;;;;;;;;;;;;;
2023/11/03 16:58:44;;;;;;;8.90;2.70;;;;;;;;;;103623;1292;549659;-81
2023/11/03 17:02:18;;;;;;;10.90;5.10;;;;;;;;;;103727;1289;547933;-82
2023/11/03 17:06:24;;;;;;;11.30;4.40;;;;;;;;;;103832;1290;549178;-80
2023/11/03 17:09:28;;;;;;;9.00;2.90;;;;;;;;;;103826;1292;545073;-80
2023/11/03 17:13:32;;;;;;;7.90;2.80;;;;;;;;;;104320;1290;547320;-84
2023/11/03 17:17:09;;;;;;;9.10;3.10;;;;;;;;;;103903;1289;548236;-81
2023/11/03 17:20:30;;;;;;;14.70;8.40;;;;;;;;;;103836;1292;545377;-81
2023/11/03 17:24:08;;;;;;;11.00;5.30;;;;;;;;;;103672;1288;547996;-80
2023/11/03 17:27:50;;;;;;;11.50;4.00;;;;;;;;;;103933;1291;549202;-83
2023/11/03 17:31:24;;;;;;;7.40;2.30;;;;;;;;;;103647;1292;547931;-80
2023/11/03 17:35:28;;;;;;;9.20;2.50;;;;;;;;;;103559;1294;547992;-82
2023/11/03 17:38:38;;;;;;;12.00;3.00;;;;;;;;;;104171;1283;545428;-79
2023/11/03 17:42:26;;;;;;;10.00;3.40;;;;;;;;;;103558;1292;549118;-81
2023/11/03 17:46:18;;;;;;;8.20;2.30;;;;;;;;;;103732;1308;545412;-81
2023/11/03 17:49:32;;;;;;;;;;;;;;;;;;;;;
2023/11/03 17:53:13;;;;;;;8.30;2.50;;;;;;;;;;103812;1290;544890;-80
2023/11/03 17:56:48;;;;;;;7.00;2.20;;;;;;;;;;103593;1295;549082;-80
2023/11/03 18:00:24;;;;;;;7.50;2.40;;;;;;;;;;103642;1295;547958;-78
2023/11/03 18:04:07;;;;;;;9.80;3.70;;;;;;;;;;103906;1292;549203;-81
2023/11/03 18:08:25;;;;;;;10.00;3.20;;;;;;;;;;103819;1294;546499;-82
2023/11/03 18:11:37;;;;;;;8.00;2.40;;;;;;;;;;104263;1286;548318;-82
2023/11/03 18:15:27;;;;;;;7.90;3.10;;;;;;;;;;104087;1297;545075;-82
2023/11/03 18:18:55;;;;;;;16.00;8.20;;;;;;;;;;103589;1291;548030;-79
2023/11/03 18:22:49;;;;;;;13.10;5.80;;;;;;;;;;103905;1288;544733;-79
2023/11/03 18:26:27;;;;;;;14.30;8.70;;;;;;;;;;103612;1294;546517;-79
2023/11/03 18:30:17;;;;;;;;;;;;;;;;;;;;;
2023/11/03 18:33:45;;;;;;;14.90;9.50;;;;;;;;;;103547;1295;545343;-78
2023/11/03 18:37:09;;;;;;;15.60;6.70;;;;;;;;;;103705;1294;549184;-80
2023/11/03 18:40:40;;;;;;;29.90;15.80;;;;;;;;;;104014;1295;544821;-80
2023/11/03 18:44:16;;;;;;;16.60;9.90;;;;;;;;;;103640;1293;547958;-80
2023/11/03 18:48:17;;;;;;;11.70;6.20;;;;;;;;;;103402;1297;545555;-81
2023/11/03 18:51:34;;;;;;;12.70;6.00;;;;;;;;;;103619;1294;547970;-79
2023/11/03 18:55:22;;;;;;;10.20;4.50;;;;;;;;;;103838;1292;545282;-83
2023/11/03 18:58:48;;;;;;;7.50;3.20;;;;;;;;;;103149;1298;547777;-77
2023/11/03 19:02:15;;;;;;;12.00;7.10;;;;;;;;;;103778;1291;545821;-78
2023/11/03 19:05:55;;;;;;;9.40;5.10;;;;;;;;;;103874;1292;545209;-79
2023/11/03 19:09:55;;;;;;;9.60;5.00;;;;;;;;;;103484;1292;546294;-79
2023/11/03 19:13:38;;;;;;;9.90;4.90;;;;;;;;;;103786;1295;547953;-80
2023/11/03 19:16:56;;;;;;;10.10;4.10;;;;;;;;;;103716;1290;545456;-77
2023/11/03 19:20:55;;;;;;;9.40;4.10;;;;;;;;;;104135;1289;545266;-86
2023/11/03 19:24:06;;;;;;;8.70;4.30;;;;;;;;;;103820;1292;548056;-78
2023/11/03 19:28:01;;;;;;;;;;;;;;;;;;;;;
2023/11/03 19:31:33;;;;;;;8.30;4.00;;;;;;;;;;103945;1304;547873;-84
2023/11/03 19:35:19;;;;;;;6.30;2.60;;;;;;;;;;103666;1291;545704;-87
2023/11/03 19:38:48;;;;;;;7.80;2.70;;;;;;;;;;103423;1297;545100;-83
2023/11/03 19:42:36;;;;;;;;;;;;;;;;;;;;;
2023/11/03 19:46:08;;;;;;;7.80;3.40;;;;;;;;;;103637;1293;547827;-89
2023/11/03 19:49:45;;;;;;;;;;;;;;;;;;;;;
2023/11/03 19:53:06;;;;;;;6.70;2.20;;;;;;;;;;103730;1291;548452;-77
2023/11/03 19:56:50;;;;;;;7.40;2.60;;;;;;;;;;103682;1298;545344;-78
2023/11/03 20:00:18;;;;;;;10.40;4.60;;;;;;;;;;103833;1289;545543;-82
2023/11/03 20:04:03;;;;;;;13.60;6.50;;;;;;;;;;103698;1295;549311;-83
2023/11/03 20:07:38;;;;;;;13.30;5.70;;;;;;;;;;104018;1290;545510;-83
2023/11/03 20:11:33;;;;;;;;;;;;;;;;;;;;;
2023/11/03 20:15:06;;;;;;;8.60;3.70;;;;;;;;;;103684;1292;547800;-79
2023/11/03 20:18:36;;;;;;;6.80;2.80;;;;;;;;;;103887;1294;546182;-79
2023/11/03 20:22:28;;;;;;;8.30;3.60;;;;;;;;;;103783;1292;547809;-87
2023/11/03 20:25:44;;;;;;;8.50;3.60;;;;;;;;;;104565;1283;545673;-79
2023/11/03 20:29:41;;;;;;;9.70;3.90;;;;;;;;;;103667;1291;547821;-84
2023/11/03 20:33:08;;;;;;;10.50;4.70;;;;;;;;;;103642;1294;549030;-84
2023/11/03 20:36:37;;;;;;;10.20;3.90;;;;;;;;;;103608;1296;545045;-76
2023/11/03 20:41:05;;;;;;;;;;;;;;;;;;;;;
2023/11/03 20:44:00;;;;;;;13.90;6.90;;;;;;;;;;103808;1292;549470;-77
2023/11/03 20:47:48;;;;;;;;;;;;;;;;;;;;;
2023/11/03 20:51:36;;;;;;;12.00;5.40;;;;;;;;;;103867;1292;545249;-77
2023/11/03 20:55:04;;;;;;;15.90;9.10;;;;;;;;;;103866;1290;547800;-81
2023/11/03 20:58:35;;;;;;;25.20;13.20;;;;;;;;;;103708;1293;547915;-81
2023/11/03 21:02:04;;;;;;;10.90;5.40;;;;;;;;;;103719;1291;548552;-78
2023/11/03 21:05:38;;;;;;;11.20;4.20;;;;;;;;;;103779;1291;545546;-79
2023/11/03 21:09:33;;;;;;;18.30;9.00;;;;;;;;;;103823;1295;545193;-79
2023/11/03 21:13:30;;;;;;;39.10;19.50;;;;;;;;;;104131;1299;544782;-86
2023/11/03 21:17:06;;;;;;;17.60;7.00;;;;;;;;;;103505;1293;548177;-77
2023/11/03 21:20:14;;;;;;;11.10;4.30;;;;;;;;;;103963;1291;545622;-86
2023/11/03 21:23:45;;;;;;;8.60;3.40;;;;;;;;;;103741;1292;545022;-77
2023/11/03 21:27:32;;;;;;;10.60;3.70;;;;;;;;;;103654;1292;548194;-77
2023/11/03 21:30:55;;;;;;;7.20;3.10;;;;;;;;;;103905;1290;544777;-81
2023/11/03 21:34:38;;;;;;;9.00;3.40;;;;;;;;;;103830;1294;545412;-79